Élőkép

Információk

Albatrosz Repülő Egyesület
8000 Székesfehérvár,
Radványi utca 6.

Adószám:
19092908-2-07

Bankszámla szám:
Budapest Bank
10102952-01361819-00000001

Telefon: +36 30 9598-897

Telephey: Börgönd repülőtér

Börgöndi repülõtér

LHBP METAR/TAF

[source: ADDS]
METAR
TAF LHBP 281700Z 2818/2918 07007KT 2500 BR OVC002 TEMPO 2818/2912 1800 BR -DZ OVC001 PROB40 TEMPO 2903/2906 1200 -FZDZ BR OVC001 BECMG 2912/2915 6000 NSW BKN025 TAF
TAF LHBP 281700Z 2818/2918 07007KT 2500 BR OVC002 TEMPO 2818/2912 1800 BR -DZ OVC001 PROB40 TEMPO 2903/2906 1200 -FZDZ BR OVC001 BECMG 2912/2915 6000 NSW BKN025 =
SR / SS: 06:09 / 15:02 UTC (Börgönd 2014-11-28)
Hungarian Chinese (Simplified) Croatian Czech English Finnish French German Hebrew Italian Japanese Polish Portuguese Romanian Russian Serbian Slovak Slovenian Spanish

Belépés tagoknak